Hebron, CT (06248)

1:55 PM EST on December 05, 2016 (GMT -0500)
At Skinner Lane | | Change Station

Elev 640 ft 41.68 °N, 72.37 °W | Updated 10 seconds ago

Overcast
Overcast
39.6 °F
Feels Like 40 °F
N
2.3
Wind Variable Wind from West
Gusts 2.3 mph

Today
High -- | Low -- °F
--% Chance of Precip.
Yesterday
High -- | Low -- °F
Precip. -- in
Pressure 29.94 in
Visibility 8.0 miles
Clouds Overcast 1800 ft
Windchill 40 °F
Dew Point 34 °F
Humidity 80%
Rainfall 0.04 in
Snow Depth Not available.
7:01 AM 4:19 PM
Waxing Crescent, 34% visible
METAR KIJD 051852Z AUTO 00000KT 8SM OVC018 06/03 A2993 RMK AO2 SLP137 T00560033
Pressure 29.94 in
Visibility 8.0 miles
Clouds Overcast 1800 ft
Windchill 40 °F
Dew Point 34 °F
Humidity 80%
Rainfall 0.04 in
Snow Depth Not available.
7:01 AM 4:19 PM
Waxing Crescent, 34% visible
METAR KIJD 051852Z AUTO 00000KT 8SM OVC018 06/03 A2993 RMK AO2 SLP137 T00560033

10-Day Weather Forecast

Almanac

Astronomy

Dec. 05, 2016 Rise Set
Actual Time
Civil Twilight
Nautical Twilight
Astronomical Twilight
Moon
Length of Visible Light
Length of Day
Tomorrow will be .
, % of the Moon is Illuminated

Today's Extremes

State Highs State Lows

Community

WunderPhotos

Upload Photos

1,955,851 photos uploaded!

WunderBlog® & News

Nearby

Air Quality

  Air Quality AQ Index Pollutant
Not available.

Snow Depth

Station Depth Elevation

Earthquake Activity

City Distance Mag. Time & Date
Minimum magnitude displayed is 2.5.

Coastal Water Temperatures

Place Temperature

Stations

Nearby Weather Stations

Station Location Temp. Windchill Dew Point Humidity Wind Precip. Elev Updated Type
                   

Watches & Warnings

There are currently no watches in effect.